sensor_id;sensor_type;location;lat;lon;timestamp;temperature;humidity
27797;DHT22;15177;50.844;4.412;2023-07-30T00:01:09;18.20;99.90
27797;DHT22;15177;50.844;4.412;2023-07-30T00:03:41;18.20;99.90
27797;DHT22;15177;50.844;4.412;2023-07-30T00:06:09;18.20;99.90
27797;DHT22;15177;50.844;4.412;2023-07-30T00:08:35;18.00;99.90
27797;DHT22;15177;50.844;4.412;2023-07-30T00:11:00;18.00;99.90
27797;DHT22;15177;50.844;4.412;2023-07-30T00:13:29;18.10;99.90
27797;DHT22;15177;50.844;4.412;2023-07-30T00:15:55;18.10;99.90
27797;DHT22;15177;50.844;4.412;2023-07-30T00:18:22;18.20;99.90
27797;DHT22;15177;50.844;4.412;2023-07-30T00:20:48;18.10;99.90
27797;DHT22;15177;50.844;4.412;2023-07-30T00:23:14;18.00;99.90
27797;DHT22;15177;50.844;4.412;2023-07-30T00:25:43;18.10;99.90
27797;DHT22;15177;50.844;4.412;2023-07-30T00:28:11;18.10;99.90
27797;DHT22;15177;50.844;4.412;2023-07-30T00:30:37;18.00;99.90
27797;DHT22;15177;50.844;4.412;2023-07-30T00:33:03;18.00;99.90
27797;DHT22;15177;50.844;4.412;2023-07-30T00:35:29;17.90;99.90
27797;DHT22;15177;50.844;4.412;2023-07-30T00:37:57;17.90;99.90
27797;DHT22;15177;50.844;4.412;2023-07-30T00:40:23;17.90;99.90
27797;DHT22;15177;50.844;4.412;2023-07-30T00:42:52;17.90;99.90
27797;DHT22;15177;50.844;4.412;2023-07-30T00:45:18;17.80;99.90
27797;DHT22;15177;50.844;4.412;2023-07-30T00:47:47;17.80;99.90
27797;DHT22;15177;50.844;4.412;2023-07-30T00:50:17;17.80;99.90
27797;DHT22;15177;50.844;4.412;2023-07-30T00:52:46;17.90;99.90
27797;DHT22;15177;50.844;4.412;2023-07-30T00:55:15;17.90;99.90
27797;DHT22;15177;50.844;4.412;2023-07-30T00:57:44;18.00;99.90
27797;DHT22;15177;50.844;4.412;2023-07-30T01:00:11;18.00;99.90
27797;DHT22;15177;50.844;4.412;2023-07-30T01:02:43;18.00;99.90
27797;DHT22;15177;50.844;4.412;2023-07-30T01:05:09;18.00;99.90
27797;DHT22;15177;50.844;4.412;2023-07-30T01:07:40;18.10;99.90
27797;DHT22;15177;50.844;4.412;2023-07-30T01:10:06;18.10;99.90
27797;DHT22;15177;50.844;4.412;2023-07-30T01:12:34;18.10;99.90
27797;DHT22;15177;50.844;4.412;2023-07-30T01:15:00;18.10;99.90
27797;DHT22;15177;50.844;4.412;2023-07-30T01:17:28;18.10;99.90
27797;DHT22;15177;50.844;4.412;2023-07-30T01:20:02;18.10;99.90
27797;DHT22;15177;50.844;4.412;2023-07-30T01:22:31;18.10;99.90
27797;DHT22;15177;50.844;4.412;2023-07-30T01:24:57;18.00;99.90
27797;DHT22;15177;50.844;4.412;2023-07-30T01:27:31;18.10;99.90
27797;DHT22;15177;50.844;4.412;2023-07-30T01:32:41;18.20;99.90
27797;DHT22;15177;50.844;4.412;2023-07-30T01:35:08;18.20;99.90
27797;DHT22;15177;50.844;4.412;2023-07-30T01:37:36;18.10;99.90
27797;DHT22;15177;50.844;4.412;2023-07-30T01:40:09;18.30;99.90
27797;DHT22;15177;50.844;4.412;2023-07-30T01:42:35;18.20;99.90
27797;DHT22;15177;50.844;4.412;2023-07-30T01:45:08;18.30;99.90
27797;DHT22;15177;50.844;4.412;2023-07-30T01:47:35;18.20;99.90
27797;DHT22;15177;50.844;4.412;2023-07-30T01:50:06;18.30;99.90
27797;DHT22;15177;50.844;4.412;2023-07-30T01:52:32;18.20;99.90
27797;DHT22;15177;50.844;4.412;2023-07-30T01:54:58;18.30;99.90
27797;DHT22;15177;50.844;4.412;2023-07-30T01:57:29;18.40;99.90
27797;DHT22;15177;50.844;4.412;2023-07-30T01:59:55;18.40;99.90
27797;DHT22;15177;50.844;4.412;2023-07-30T02:02:39;18.30;99.90
27797;DHT22;15177;50.844;4.412;2023-07-30T02:05:05;18.30;99.90
27797;DHT22;15177;50.844;4.412;2023-07-30T02:07:35;18.30;99.90
27797;DHT22;15177;50.844;4.412;2023-07-30T02:10:01;18.30;99.90
27797;DHT22;15177;50.844;4.412;2023-07-30T02:12:27;18.30;99.90
27797;DHT22;15177;50.844;4.412;2023-07-30T02:14:55;18.30;99.90
27797;DHT22;15177;50.844;4.412;2023-07-30T02:17:24;18.20;99.90
27797;DHT22;15177;50.844;4.412;2023-07-30T02:19:50;18.10;99.90
27797;DHT22;15177;50.844;4.412;2023-07-30T02:22:21;18.20;99.90
27797;DHT22;15177;50.844;4.412;2023-07-30T02:24:53;18.10;99.90
27797;DHT22;15177;50.844;4.412;2023-07-30T02:27:18;18.20;99.90
27797;DHT22;15177;50.844;4.412;2023-07-30T02:29:44;18.20;99.90
27797;DHT22;15177;50.844;4.412;2023-07-30T02:32:16;18.10;99.90
27797;DHT22;15177;50.844;4.412;2023-07-30T02:34:42;18.10;99.90
27797;DHT22;15177;50.844;4.412;2023-07-30T02:37:08;18.00;99.90
27797;DHT22;15177;50.844;4.412;2023-07-30T02:39:36;18.00;99.90
27797;DHT22;15177;50.844;4.412;2023-07-30T02:42:04;18.00;99.90
27797;DHT22;15177;50.844;4.412;2023-07-30T02:44:30;17.90;99.90
27797;DHT22;15177;50.844;4.412;2023-07-30T02:46:59;17.90;99.90
27797;DHT22;15177;50.844;4.412;2023-07-30T02:49:24;17.90;99.90
27797;DHT22;15177;50.844;4.412;2023-07-30T02:51:50;18.00;99.90
27797;DHT22;15177;50.844;4.412;2023-07-30T02:54:16;17.80;99.90
27797;DHT22;15177;50.844;4.412;2023-07-30T02:56:43;17.90;99.90
27797;DHT22;15177;50.844;4.412;2023-07-30T02:59:14;17.90;99.90
27797;DHT22;15177;50.844;4.412;2023-07-30T03:01:42;17.80;99.90
27797;DHT22;15177;50.844;4.412;2023-07-30T03:04:09;17.80;99.90
27797;DHT22;15177;50.844;4.412;2023-07-30T03:06:38;17.90;99.90
27797;DHT22;15177;50.844;4.412;2023-07-30T03:09:04;17.70;99.90
27797;DHT22;15177;50.844;4.412;2023-07-30T03:11:29;17.70;99.90
27797;DHT22;15177;50.844;4.412;2023-07-30T03:13:58;17.70;99.90
27797;DHT22;15177;50.844;4.412;2023-07-30T03:16:23;17.80;99.90
27797;DHT22;15177;50.844;4.412;2023-07-30T03:19:07;17.80;99.90
27797;DHT22;15177;50.844;4.412;2023-07-30T03:21:41;17.80;99.90
27797;DHT22;15177;50.844;4.412;2023-07-30T03:24:09;17.80;99.90
27797;DHT22;15177;50.844;4.412;2023-07-30T03:26:35;17.80;99.90
27797;DHT22;15177;50.844;4.412;2023-07-30T03:29:01;17.80;99.90
27797;DHT22;15177;50.844;4.412;2023-07-30T03:31:30;17.70;99.90
27797;DHT22;15177;50.844;4.412;2023-07-30T03:33:59;17.70;99.90
27797;DHT22;15177;50.844;4.412;2023-07-30T03:36:28;17.70;99.90
27797;DHT22;15177;50.844;4.412;2023-07-30T03:38:54;17.80;99.90
27797;DHT22;15177;50.844;4.412;2023-07-30T03:41:22;17.80;99.90
27797;DHT22;15177;50.844;4.412;2023-07-30T03:43:50;17.80;99.90
27797;DHT22;15177;50.844;4.412;2023-07-30T03:46:16;17.80;99.90
27797;DHT22;15177;50.844;4.412;2023-07-30T03:48:42;17.80;99.90
27797;DHT22;15177;50.844;4.412;2023-07-30T03:51:10;17.90;99.90
27797;DHT22;15177;50.844;4.412;2023-07-30T03:53:37;18.00;99.90
27797;DHT22;15177;50.844;4.412;2023-07-30T03:56:06;17.90;99.90
27797;DHT22;15177;50.844;4.412;2023-07-30T03:58:31;17.90;99.90
27797;DHT22;15177;50.844;4.412;2023-07-30T04:00:57;17.80;99.90
27797;DHT22;15177;50.844;4.412;2023-07-30T04:03:23;17.80;99.90
27797;DHT22;15177;50.844;4.412;2023-07-30T04:05:54;17.80;99.90
27797;DHT22;15177;50.844;4.412;2023-07-30T04:08:23;17.90;99.90
27797;DHT22;15177;50.844;4.412;2023-07-30T04:10:52;17.90;99.90
27797;DHT22;15177;50.844;4.412;2023-07-30T04:13:18;17.90;99.90
27797;DHT22;15177;50.844;4.412;2023-07-30T04:15:43;17.90;99.90
27797;DHT22;15177;50.844;4.412;2023-07-30T04:18:09;17.90;99.90
27797;DHT22;15177;50.844;4.412;2023-07-30T04:20:35;17.90;99.90
27797;DHT22;15177;50.844;4.412;2023-07-30T04:23:01;17.80;99.90
27797;DHT22;15177;50.844;4.412;2023-07-30T04:25:29;17.80;99.90
27797;DHT22;15177;50.844;4.412;2023-07-30T04:27:55;17.80;99.90
27797;DHT22;15177;50.844;4.412;2023-07-30T04:30:21;17.80;99.90
27797;DHT22;15177;50.844;4.412;2023-07-30T04:32:47;17.70;99.90
27797;DHT22;15177;50.844;4.412;2023-07-30T04:35:15;17.80;99.90
27797;DHT22;15177;50.844;4.412;2023-07-30T04:37:46;17.70;99.90
27797;DHT22;15177;50.844;4.412;2023-07-30T04:40:12;17.70;99.90
27797;DHT22;15177;50.844;4.412;2023-07-30T04:42:41;17.80;99.90
27797;DHT22;15177;50.844;4.412;2023-07-30T04:45:14;17.80;99.90
27797;DHT22;15177;50.844;4.412;2023-07-30T04:47:43;17.70;99.90
27797;DHT22;15177;50.844;4.412;2023-07-30T04:50:11;17.80;99.90
27797;DHT22;15177;50.844;4.412;2023-07-30T04:52:38;17.70;99.90
27797;DHT22;15177;50.844;4.412;2023-07-30T04:55:08;17.70;99.90
27797;DHT22;15177;50.844;4.412;2023-07-30T04:57:34;17.70;99.90
27797;DHT22;15177;50.844;4.412;2023-07-30T05:00:02;17.70;99.90
27797;DHT22;15177;50.844;4.412;2023-07-30T05:02:29;17.70;99.90
27797;DHT22;15177;50.844;4.412;2023-07-30T05:04:55;17.80;99.90
27797;DHT22;15177;50.844;4.412;2023-07-30T05:07:21;17.70;99.90
27797;DHT22;15177;50.844;4.412;2023-07-30T05:09:54;17.70;99.90
27797;DHT22;15177;50.844;4.412;2023-07-30T05:12:23;17.80;99.90
27797;DHT22;15177;50.844;4.412;2023-07-30T05:15:03;17.70;99.90
27797;DHT22;15177;50.844;4.412;2023-07-30T05:17:36;17.70;99.90
27797;DHT22;15177;50.844;4.412;2023-07-30T05:20:05;17.70;99.90
27797;DHT22;15177;50.844;4.412;2023-07-30T05:22:31;17.80;99.90
27797;DHT22;15177;50.844;4.412;2023-07-30T05:24:57;17.70;99.90
27797;DHT22;15177;50.844;4.412;2023-07-30T05:27:24;17.80;99.90
27797;DHT22;15177;50.844;4.412;2023-07-30T05:29:53;17.80;99.90
27797;DHT22;15177;50.844;4.412;2023-07-30T05:32:21;17.80;99.90
27797;DHT22;15177;50.844;4.412;2023-07-30T05:34:47;17.80;99.90
27797;DHT22;15177;50.844;4.412;2023-07-30T05:37:16;17.80;99.90
27797;DHT22;15177;50.844;4.412;2023-07-30T05:39:42;17.90;99.90
27797;DHT22;15177;50.844;4.412;2023-07-30T05:42:08;17.90;99.90
27797;DHT22;15177;50.844;4.412;2023-07-30T05:44:33;17.90;99.90
27797;DHT22;15177;50.844;4.412;2023-07-30T05:47:02;18.00;99.90
27797;DHT22;15177;50.844;4.412;2023-07-30T05:49:27;18.00;99.90
27797;DHT22;15177;50.844;4.412;2023-07-30T05:51:53;17.90;99.90
27797;DHT22;15177;50.844;4.412;2023-07-30T05:54:19;17.90;99.90
27797;DHT22;15177;50.844;4.412;2023-07-30T05:56:45;18.00;99.90
27797;DHT22;15177;50.844;4.412;2023-07-30T05:59:14;18.00;99.90
27797;DHT22;15177;50.844;4.412;2023-07-30T06:01:42;18.10;99.90
27797;DHT22;15177;50.844;4.412;2023-07-30T06:04:08;18.10;99.90
27797;DHT22;15177;50.844;4.412;2023-07-30T06:06:34;18.10;99.90
27797;DHT22;15177;50.844;4.412;2023-07-30T06:08:59;18.20;99.90
27797;DHT22;15177;50.844;4.412;2023-07-30T06:11:28;18.10;99.90
27797;DHT22;15177;50.844;4.412;2023-07-30T06:13:54;18.20;99.90
27797;DHT22;15177;50.844;4.412;2023-07-30T06:16:20;18.20;99.90
27797;DHT22;15177;50.844;4.412;2023-07-30T06:18:50;18.20;99.90
27797;DHT22;15177;50.844;4.412;2023-07-30T06:21:19;18.10;99.90
27797;DHT22;15177;50.844;4.412;2023-07-30T06:23:49;18.20;99.90
27797;DHT22;15177;50.844;4.412;2023-07-30T06:26:16;18.10;99.90
27797;DHT22;15177;50.844;4.412;2023-07-30T06:28:41;18.10;99.90
27797;DHT22;15177;50.844;4.412;2023-07-30T06:31:11;18.10;99.90
27797;DHT22;15177;50.844;4.412;2023-07-30T06:33:39;18.10;99.90
27797;DHT22;15177;50.844;4.412;2023-07-30T06:36:08;18.10;99.90
27797;DHT22;15177;50.844;4.412;2023-07-30T06:38:33;18.10;99.90
27797;DHT22;15177;50.844;4.412;2023-07-30T06:40:59;18.20;99.90
27797;DHT22;15177;50.844;4.412;2023-07-30T06:43:25;18.30;99.90
27797;DHT22;15177;50.844;4.412;2023-07-30T06:45:52;18.40;99.90
27797;DHT22;15177;50.844;4.412;2023-07-30T06:48:18;18.50;99.90
27797;DHT22;15177;50.844;4.412;2023-07-30T06:50:44;18.60;99.90
27797;DHT22;15177;50.844;4.412;2023-07-30T06:53:12;18.70;99.90
27797;DHT22;15177;50.844;4.412;2023-07-30T06:55:38;18.80;99.90
27797;DHT22;15177;50.844;4.412;2023-07-30T06:58:04;18.90;99.90
27797;DHT22;15177;50.844;4.412;2023-07-30T07:00:32;19.60;99.90
27797;DHT22;15177;50.844;4.412;2023-07-30T07:03:01;20.30;99.90
27797;DHT22;15177;50.844;4.412;2023-07-30T07:05:27;20.90;99.90
27797;DHT22;15177;50.844;4.412;2023-07-30T07:07:55;21.90;99.90
27797;DHT22;15177;50.844;4.412;2023-07-30T07:10:21;23.20;99.90
27797;DHT22;15177;50.844;4.412;2023-07-30T07:12:47;24.20;99.90
27797;DHT22;15177;50.844;4.412;2023-07-30T07:15:13;24.80;99.90
27797;DHT22;15177;50.844;4.412;2023-07-30T07:17:41;25.00;99.90
27797;DHT22;15177;50.844;4.412;2023-07-30T07:20:07;25.60;99.90
27797;DHT22;15177;50.844;4.412;2023-07-30T07:22:47;25.70;99.90
27797;DHT22;15177;50.844;4.412;2023-07-30T07:25:16;26.00;99.90
27797;DHT22;15177;50.844;4.412;2023-07-30T07:27:44;25.70;99.90
27797;DHT22;15177;50.844;4.412;2023-07-30T07:30:10;25.60;99.90
27797;DHT22;15177;50.844;4.412;2023-07-30T07:32:39;25.80;99.90
27797;DHT22;15177;50.844;4.412;2023-07-30T07:35:11;26.30;99.90
27797;DHT22;15177;50.844;4.412;2023-07-30T07:37:37;26.50;99.90
27797;DHT22;15177;50.844;4.412;2023-07-30T07:40:03;26.20;99.90
27797;DHT22;15177;50.844;4.412;2023-07-30T07:42:41;25.40;99.90
27797;DHT22;15177;50.844;4.412;2023-07-30T07:45:07;24.90;99.90
27797;DHT22;15177;50.844;4.412;2023-07-30T07:47:33;24.30;99.90
27797;DHT22;15177;50.844;4.412;2023-07-30T07:49:59;23.90;99.90
27797;DHT22;15177;50.844;4.412;2023-07-30T07:52:25;23.50;99.90
27797;DHT22;15177;50.844;4.412;2023-07-30T07:54:51;23.40;99.90
27797;DHT22;15177;50.844;4.412;2023-07-30T07:57:25;23.50;99.90
27797;DHT22;15177;50.844;4.412;2023-07-30T07:59:51;23.60;99.90
27797;DHT22;15177;50.844;4.412;2023-07-30T08:02:20;23.60;99.90
27797;DHT22;15177;50.844;4.412;2023-07-30T08:04:45;24.30;99.90
27797;DHT22;15177;50.844;4.412;2023-07-30T08:07:11;24.90;99.90
27797;DHT22;15177;50.844;4.412;2023-07-30T08:09:37;25.60;99.90
27797;DHT22;15177;50.844;4.412;2023-07-30T08:12:03;25.60;99.90
27797;DHT22;15177;50.844;4.412;2023-07-30T08:14:30;25.50;99.90
27797;DHT22;15177;50.844;4.412;2023-07-30T08:16:56;25.40;99.90
27797;DHT22;15177;50.844;4.412;2023-07-30T08:19:30;24.90;99.90
27797;DHT22;15177;50.844;4.412;2023-07-30T08:22:01;24.50;99.90
27797;DHT22;15177;50.844;4.412;2023-07-30T08:24:26;24.00;99.90
27797;DHT22;15177;50.844;4.412;2023-07-30T08:26:54;23.60;99.90
27797;DHT22;15177;50.844;4.412;2023-07-30T08:29:25;23.30;99.90
27797;DHT22;15177;50.844;4.412;2023-07-30T08:31:51;23.30;99.90
27797;DHT22;15177;50.844;4.412;2023-07-30T08:34:23;23.20;99.90
27797;DHT22;15177;50.844;4.412;2023-07-30T08:36:49;22.80;99.90
27797;DHT22;15177;50.844;4.412;2023-07-30T08:39:15;22.80;99.90
27797;DHT22;15177;50.844;4.412;2023-07-30T08:41:41;22.90;99.90
27797;DHT22;15177;50.844;4.412;2023-07-30T08:44:07;23.10;99.90
27797;DHT22;15177;50.844;4.412;2023-07-30T08:46:33;23.60;99.90
27797;DHT22;15177;50.844;4.412;2023-07-30T08:49:07;23.80;99.90
27797;DHT22;15177;50.844;4.412;2023-07-30T08:51:38;23.60;99.90
27797;DHT22;15177;50.844;4.412;2023-07-30T08:54:05;23.30;99.90
27797;DHT22;15177;50.844;4.412;2023-07-30T08:56:32;23.10;99.90
27797;DHT22;15177;50.844;4.412;2023-07-30T08:58:59;22.80;99.90
27797;DHT22;15177;50.844;4.412;2023-07-30T09:01:30;22.80;99.90
27797;DHT22;15177;50.844;4.412;2023-07-30T09:04:03;22.70;99.90
27797;DHT22;15177;50.844;4.412;2023-07-30T09:06:39;22.50;99.90
27797;DHT22;15177;50.844;4.412;2023-07-30T09:09:05;22.40;99.90
27797;DHT22;15177;50.844;4.412;2023-07-30T09:11:34;22.30;99.90
27797;DHT22;15177;50.844;4.412;2023-07-30T09:14:01;22.20;99.90
27797;DHT22;15177;50.844;4.412;2023-07-30T09:16:28;22.20;99.90
27797;DHT22;15177;50.844;4.412;2023-07-30T09:18:54;21.90;99.90
27797;DHT22;15177;50.844;4.412;2023-07-30T09:21:33;21.70;99.90
27797;DHT22;15177;50.844;4.412;2023-07-30T09:24:02;21.60;99.90
27797;DHT22;15177;50.844;4.412;2023-07-30T09:26:45;21.50;99.90
27797;DHT22;15177;50.844;4.412;2023-07-30T09:29:11;21.30;99.90
27797;DHT22;15177;50.844;4.412;2023-07-30T09:31:51;21.20;99.90
27797;DHT22;15177;50.844;4.412;2023-07-30T09:34:23;21.20;99.90
27797;DHT22;15177;50.844;4.412;2023-07-30T09:36:55;21.30;99.90
27797;DHT22;15177;50.844;4.412;2023-07-30T09:39:22;21.50;99.90
27797;DHT22;15177;50.844;4.412;2023-07-30T09:41:53;21.70;99.90
27797;DHT22;15177;50.844;4.412;2023-07-30T09:44:24;21.90;99.90
27797;DHT22;15177;50.844;4.412;2023-07-30T09:46:51;21.90;99.90
27797;DHT22;15177;50.844;4.412;2023-07-30T09:49:17;21.70;99.90
27797;DHT22;15177;50.844;4.412;2023-07-30T09:51:47;21.70;99.90
27797;DHT22;15177;50.844;4.412;2023-07-30T09:54:18;21.70;99.90
27797;DHT22;15177;50.844;4.412;2023-07-30T09:56:46;21.60;99.90
27797;DHT22;15177;50.844;4.412;2023-07-30T09:59:14;21.30;99.90
27797;DHT22;15177;50.844;4.412;2023-07-30T10:01:45;21.20;99.90
27797;DHT22;15177;50.844;4.412;2023-07-30T10:04:12;21.00;99.90
27797;DHT22;15177;50.844;4.412;2023-07-30T10:09:22;20.70;99.90
27797;DHT22;15177;50.844;4.412;2023-07-30T10:11:51;20.50;99.90
27797;DHT22;15177;50.844;4.412;2023-07-30T10:14:22;20.40;99.90
27797;DHT22;15177;50.844;4.412;2023-07-30T10:16:52;20.20;99.90
27797;DHT22;15177;50.844;4.412;2023-07-30T10:19:25;20.10;99.90
27797;DHT22;15177;50.844;4.412;2023-07-30T10:22:19;20.20;99.90
27797;DHT22;15177;50.844;4.412;2023-07-30T10:25:12;20.30;99.90
27797;DHT22;15177;50.844;4.412;2023-07-30T10:27:41;21.70;99.90
27797;DHT22;15177;50.844;4.412;2023-07-30T10:30:19;23.30;99.90
27797;DHT22;15177;50.844;4.412;2023-07-30T10:35:39;26.00;99.90
27797;DHT22;15177;50.844;4.412;2023-07-30T10:38:29;27.00;99.90
27797;DHT22;15177;50.844;4.412;2023-07-30T10:41:05;27.50;98.90
27797;DHT22;15177;50.844;4.412;2023-07-30T10:43:48;28.00;95.50
27797;DHT22;15177;50.844;4.412;2023-07-30T10:46:20;27.80;94.70
27797;DHT22;15177;50.844;4.412;2023-07-30T10:48:48;27.30;95.90
27797;DHT22;15177;50.844;4.412;2023-07-30T10:51:23;26.60;98.30
27797;DHT22;15177;50.844;4.412;2023-07-30T10:53:56;25.90;99.90
27797;DHT22;15177;50.844;4.412;2023-07-30T10:59:14;24.30;99.90
27797;DHT22;15177;50.844;4.412;2023-07-30T11:04:38;23.80;99.90
27797;DHT22;15177;50.844;4.412;2023-07-30T11:07:33;23.90;99.90
27797;DHT22;15177;50.844;4.412;2023-07-30T11:10:00;24.60;99.90
27797;DHT22;15177;50.844;4.412;2023-07-30T11:12:32;25.60;99.90
27797;DHT22;15177;50.844;4.412;2023-07-30T11:15:04;26.70;99.90
27797;DHT22;15177;50.844;4.412;2023-07-30T11:17:30;27.20;99.90
27797;DHT22;15177;50.844;4.412;2023-07-30T11:19:56;27.30;99.90
27797;DHT22;15177;50.844;4.412;2023-07-30T11:22:32;27.30;99.90
27797;DHT22;15177;50.844;4.412;2023-07-30T11:24:58;27.20;99.40
27797;DHT22;15177;50.844;4.412;2023-07-30T11:27:37;26.70;99.90
27797;DHT22;15177;50.844;4.412;2023-07-30T11:30:12;26.50;99.00
27797;DHT22;15177;50.844;4.412;2023-07-30T11:32:38;26.30;98.10
27797;DHT22;15177;50.844;4.412;2023-07-30T11:35:05;26.40;96.90
27797;DHT22;15177;50.844;4.412;2023-07-30T11:37:35;26.40;95.10
27797;DHT22;15177;50.844;4.412;2023-07-30T11:40:11;26.30;95.20
27797;DHT22;15177;50.844;4.412;2023-07-30T11:42:41;26.30;95.00
27797;DHT22;15177;50.844;4.412;2023-07-30T11:45:23;26.10;93.00
27797;DHT22;15177;50.844;4.412;2023-07-30T11:47:52;25.80;92.80
27797;DHT22;15177;50.844;4.412;2023-07-30T11:50:18;25.60;93.00
27797;DHT22;15177;50.844;4.412;2023-07-30T11:52:57;25.40;93.20
27797;DHT22;15177;50.844;4.412;2023-07-30T11:55:23;25.20;93.10
27797;DHT22;15177;50.844;4.412;2023-07-30T11:57:51;25.20;92.40
27797;DHT22;15177;50.844;4.412;2023-07-30T12:00:20;25.00;93.50
27797;DHT22;15177;50.844;4.412;2023-07-30T12:02:46;24.90;93.80
27797;DHT22;15177;50.844;4.412;2023-07-30T12:05:12;24.80;93.80
27797;DHT22;15177;50.844;4.412;2023-07-30T12:07:41;24.90;94.10
27797;DHT22;15177;50.844;4.412;2023-07-30T12:10:12;24.90;93.80
27797;DHT22;15177;50.844;4.412;2023-07-30T12:12:51;24.90;94.00
27797;DHT22;15177;50.844;4.412;2023-07-30T12:15:23;24.70;94.70
27797;DHT22;15177;50.844;4.412;2023-07-30T12:17:55;24.40;95.90
27797;DHT22;15177;50.844;4.412;2023-07-30T12:20:21;24.30;96.80
27797;DHT22;15177;50.844;4.412;2023-07-30T12:22:47;24.50;97.10
27797;DHT22;15177;50.844;4.412;2023-07-30T12:25:13;24.60;95.60
27797;DHT22;15177;50.844;4.412;2023-07-30T12:27:39;24.60;95.30
27797;DHT22;15177;50.844;4.412;2023-07-30T12:30:07;24.70;94.80
27797;DHT22;15177;50.844;4.412;2023-07-30T12:32:33;24.70;94.60
27797;DHT22;15177;50.844;4.412;2023-07-30T12:35:02;24.80;94.50
27797;DHT22;15177;50.844;4.412;2023-07-30T12:37:28;24.80;94.00
27797;DHT22;15177;50.844;4.412;2023-07-30T12:39:54;24.60;95.70
27797;DHT22;15177;50.844;4.412;2023-07-30T12:42:20;24.50;96.70
27797;DHT22;15177;50.844;4.412;2023-07-30T12:44:47;24.50;96.50
27797;DHT22;15177;50.844;4.412;2023-07-30T12:47:12;24.50;95.70
27797;DHT22;15177;50.844;4.412;2023-07-30T12:49:38;24.40;96.20
27797;DHT22;15177;50.844;4.412;2023-07-30T12:52:04;24.30;96.70
27797;DHT22;15177;50.844;4.412;2023-07-30T12:54:30;24.20;96.60
27797;DHT22;15177;50.844;4.412;2023-07-30T12:56:56;24.30;96.70
27797;DHT22;15177;50.844;4.412;2023-07-30T12:59:22;24.60;96.30
27797;DHT22;15177;50.844;4.412;2023-07-30T13:01:48;24.70;95.00
27797;DHT22;15177;50.844;4.412;2023-07-30T13:04:14;24.70;93.40
27797;DHT22;15177;50.844;4.412;2023-07-30T13:06:40;24.60;91.90
27797;DHT22;15177;50.844;4.412;2023-07-30T13:09:05;24.70;90.80
27797;DHT22;15177;50.844;4.412;2023-07-30T13:11:31;24.70;91.10
27797;DHT22;15177;50.844;4.412;2023-07-30T13:13:57;24.50;91.50
27797;DHT22;15177;50.844;4.412;2023-07-30T13:16:25;24.40;92.70
27797;DHT22;15177;50.844;4.412;2023-07-30T13:18:51;24.50;92.70
27797;DHT22;15177;50.844;4.412;2023-07-30T13:21:18;24.50;92.50
27797;DHT22;15177;50.844;4.412;2023-07-30T13:23:43;24.40;92.20
27797;DHT22;15177;50.844;4.412;2023-07-30T13:26:12;24.40;92.40
27797;DHT22;15177;50.844;4.412;2023-07-30T13:28:38;24.40;92.80
27797;DHT22;15177;50.844;4.412;2023-07-30T13:31:04;24.30;92.20
27797;DHT22;15177;50.844;4.412;2023-07-30T13:33:33;24.10;92.70
27797;DHT22;15177;50.844;4.412;2023-07-30T13:35:59;24.20;93.00
27797;DHT22;15177;50.844;4.412;2023-07-30T13:38:25;24.30;92.10
27797;DHT22;15177;50.844;4.412;2023-07-30T13:40:52;24.40;92.40
27797;DHT22;15177;50.844;4.412;2023-07-30T13:43:18;24.50;92.40
27797;DHT22;15177;50.844;4.412;2023-07-30T13:45:43;24.50;91.50
27797;DHT22;15177;50.844;4.412;2023-07-30T13:48:10;24.50;92.10
27797;DHT22;15177;50.844;4.412;2023-07-30T13:50:35;24.50;91.70
27797;DHT22;15177;50.844;4.412;2023-07-30T13:53:01;24.60;91.00
27797;DHT22;15177;50.844;4.412;2023-07-30T13:55:28;24.50;90.80
27797;DHT22;15177;50.844;4.412;2023-07-30T13:57:54;24.40;91.20
27797;DHT22;15177;50.844;4.412;2023-07-30T14:00:19;24.30;91.70
27797;DHT22;15177;50.844;4.412;2023-07-30T14:02:45;24.30;92.00
27797;DHT22;15177;50.844;4.412;2023-07-30T14:05:11;24.30;92.10
27797;DHT22;15177;50.844;4.412;2023-07-30T14:07:37;24.40;92.30
27797;DHT22;15177;50.844;4.412;2023-07-30T14:10:03;24.30;92.90
27797;DHT22;15177;50.844;4.412;2023-07-30T14:12:29;24.50;93.30
27797;DHT22;15177;50.844;4.412;2023-07-30T14:14:55;24.60;93.20
27797;DHT22;15177;50.844;4.412;2023-07-30T14:17:20;24.50;93.40
27797;DHT22;15177;50.844;4.412;2023-07-30T14:19:46;24.40;93.80
27797;DHT22;15177;50.844;4.412;2023-07-30T14:22:12;24.50;94.50
27797;DHT22;15177;50.844;4.412;2023-07-30T14:24:38;24.50;94.20
27797;DHT22;15177;50.844;4.412;2023-07-30T14:27:05;24.40;94.30
27797;DHT22;15177;50.844;4.412;2023-07-30T14:29:33;24.30;94.70
27797;DHT22;15177;50.844;4.412;2023-07-30T14:31:59;24.30;95.00
27797;DHT22;15177;50.844;4.412;2023-07-30T14:34:25;24.10;96.10
27797;DHT22;15177;50.844;4.412;2023-07-30T14:36:56;24.20;96.00
27797;DHT22;15177;50.844;4.412;2023-07-30T14:39:22;24.20;96.20
27797;DHT22;15177;50.844;4.412;2023-07-30T14:41:48;24.30;96.50
27797;DHT22;15177;50.844;4.412;2023-07-30T14:44:13;24.20;97.10
27797;DHT22;15177;50.844;4.412;2023-07-30T14:46:39;24.30;97.30
27797;DHT22;15177;50.844;4.412;2023-07-30T14:49:06;24.30;97.50
27797;DHT22;15177;50.844;4.412;2023-07-30T14:51:32;24.10;98.20
27797;DHT22;15177;50.844;4.412;2023-07-30T14:53:58;23.90;99.40
27797;DHT22;15177;50.844;4.412;2023-07-30T14:56:24;23.60;99.90
27797;DHT22;15177;50.844;4.412;2023-07-30T14:58:50;23.40;99.90
27797;DHT22;15177;50.844;4.412;2023-07-30T15:01:18;23.40;99.90
27797;DHT22;15177;50.844;4.412;2023-07-30T15:03:44;23.60;99.90
27797;DHT22;15177;50.844;4.412;2023-07-30T15:06:11;23.60;99.90
27797;DHT22;15177;50.844;4.412;2023-07-30T15:08:36;23.60;99.90
27797;DHT22;15177;50.844;4.412;2023-07-30T15:11:05;23.70;99.90
27797;DHT22;15177;50.844;4.412;2023-07-30T15:13:31;23.80;99.90
27797;DHT22;15177;50.844;4.412;2023-07-30T15:15:56;23.70;99.90
27797;DHT22;15177;50.844;4.412;2023-07-30T15:18:22;23.40;99.90
27797;DHT22;15177;50.844;4.412;2023-07-30T15:20:48;23.30;99.90
27797;DHT22;15177;50.844;4.412;2023-07-30T15:23:17;23.20;99.90
27797;DHT22;15177;50.844;4.412;2023-07-30T15:25:44;23.10;99.90
27797;DHT22;15177;50.844;4.412;2023-07-30T15:28:09;23.00;99.90
27797;DHT22;15177;50.844;4.412;2023-07-30T15:30:36;22.80;99.90
27797;DHT22;15177;50.844;4.412;2023-07-30T15:33:08;22.70;99.90
27797;DHT22;15177;50.844;4.412;2023-07-30T15:35:34;22.60;99.90
27797;DHT22;15177;50.844;4.412;2023-07-30T15:38:05;22.50;99.90
27797;DHT22;15177;50.844;4.412;2023-07-30T15:40:32;22.40;99.90
27797;DHT22;15177;50.844;4.412;2023-07-30T15:43:01;22.30;99.90
27797;DHT22;15177;50.844;4.412;2023-07-30T15:45:28;22.40;99.90
27797;DHT22;15177;50.844;4.412;2023-07-30T15:48:00;22.40;99.90
27797;DHT22;15177;50.844;4.412;2023-07-30T15:50:26;22.30;99.90